KMNV

Monroe County Airport

Madisonville, Tennessee, USA
METAR KMNV 170735Z AUTO 00000KT 10SM CLR M02/M03 A3024 RMK A01
Observed Flight Rules
Dec-17 @ 07:35 UTC (31 minutes ago) Visual Flight Rules
Wind Visibility Clouds
Calm 10 miles
  • Clear skies
Temperatures Readings
Current -2°C / 28°F
Dewpoint -3°C / 27°F
Humidity 93%
Altimeter 30.24" Hg
Pressure 1024 hPa
Elevation 314
METAR KMNV 170735Z AUTO 00000KT 10SM CLR M02/M03 A3024 RMK A01
Observed Flight Rules
Dec-17 @ 07:35 UTC
(31 minutes ago)
VFR
Wind Visibility
Calm 10 miles
Clouds
  • Clear skies
Temperature Dewpoint
-2°C / 28°F -3°C / 27°F
Humidity Altimeter Pressure
93% 30.24" Hg 1024 hPa